Weather observations for the past three days for
Yap Island - Yap Int. Airport
Metric (Imperial)
Date Time (+10) Wind (kph) Vis. (km) Weather Sky Cond. Temperature (ºC) Relative Humidity Wind Chill (°C) Heat Index (°C) Pressure Precipitation (cm)
Air Dwpt 6 hour altimeter (cm) sea level (mb) 1 hr 3 hr 6 hr
Max. Min.
02 12:50 Vrbl 11 19.31 Overcast SCT016CB BKN130 OVC300 29 26.6 87% 36 75.84 1011.2
02 11:51 W 13 19.31 Overcast FEW016 BKN130 OVC300 28.6 26.6 89% 35 75.84 1011.2
02 10:52 W 13 19.31 Overcast SCT016 BKN130 OVC300 28.7 26.7 89% 36 75.87 1011.5
02 09:53 W 13 19.31 Overcast SCT016TCU BKN130 OVC300 28.3 26.7 28.3 27.6 91% 35 75.9 1012.0
02 08:51 W 13 19.31 Overcast FEW016TCU SCT130 OVC300 28.3 26.4 89% 35 75.9 1012.0
02 07:52 W 13 19.31 Overcast FEW016 SCT130 OVC300 27.9 26 89% 33 75.9 1012.0
02 06:55 Vrbl 11 19.31 Overcast FEW016TCU SCT130 OVC300 27.6 26.1 92% 33 75.9 1011.8
02 05:55 Vrbl 11 19.31 Overcast FEW016 SCT130 OVC300 27.7 26.1 91% 33 75.82 1011.0
02 04:50 W 13 19.31 Overcast FEW016CB SCT130 OVC300 27.9 26.2 91% 34 75.87 1011.7
02 02:53 Vrbl 11 19.31 Overcast FEW016CB SCT130 OVC300 28 26.4 91% 34 75.82 1011.0
02 01:51 W 13 19.31 Overcast FEW016 SCT130 OVC300 28.1 26.2 89% 34 75.87 1011.7
02 00:55 SW 7 19.31 Overcast FEW016 SCT130 OVC300 28.3 26.4 89% 35 75.9 1011.8
01 23:50 Vrbl 9 19.31 Overcast FEW016 BKN130 OVC300 28.3 26.6 91% 35 75.92 1012.2
01 22:50 Vrbl 9 19.31 Overcast FEW016 BKN130 OVC300 28.4 26.7 91% 35 75.95 1012.3
01 21:52 W 15 19.31 Overcast FEW016 BKN130 OVC300 28.5 26.4 29.9 28.5 88% 35 75.92 1012.2
01 20:50 W 13 19.31 Overcast FEW016 BKN130 OVC300 28.5 26.2 87% 35 75.87 1011.5
01 19:52 W 13 19.31 Overcast FEW016 BKN130 OVC300 28.6 26.1 86% 35 75.84 1011.2
01 18:50 W 13 19.31 Overcast FEW016 SCT130 OVC300 28.6 26.2 87% 35 75.82 1010.8
01 17:54 W 15 19.31 Overcast FEW016 BKN130 OVC300 29 26.2 85% 36 75.77 1010.1
01 16:53 Vrbl 11 19.31 Overcast FEW016 SCT130 OVC300 29.4 26.4 84% 37 75.74 1009.8
01 15:55 W 15 19.31 Overcast FEW016 SCT130 OVC300 29.9 26.5 30.3 28.8 82% 38 75.74 0.0
01 14:53 W 17 19.31 Overcast FEW016 SCT130 OVC300 30.3 26.4 80% 38 75.74 1010.0
01 13:56 W 13 19.31 Overcast SCT016 BKN130 OVC300 30.2 26.7 82% 39 75.79 1010.5
01 12:57 Vrbl 11 19.31 Overcast SCT016TCU BKN130 OVC300 30.2 27 83% 39 75.82 1011.0
01 11:50 W 15 19.31 Overcast FEW016 BKN130 OVC300 29.8 26.8 84% 38 75.87 1011.7
01 10:53 Vrbl 11 19.31 Overcast FEW016 SCT130 OVC300 29.1 26.6 86% 37 75.92 1012.2
01 08:50 W 17 19.31 Overcast FEW016 BKN130 OVC300 28.7 26.4 87% 35 75.87 1011.7
01 07:50 Vrbl 11 17.70 Light Showers Rain FEW016 BKN130 OVC300 27.8 26.1 90% 33 75.84 1011.3
01 04:51 Vrbl 11 19.31 Overcast SCT016CB BKN130 OVC300 27.9 26.1 90% 33 75.84 1011.2
01 02:53 W 13 19.31 Overcast SCT016CB BKN130 OVC300 28.3 26.3 89% 35 75.84 1011.2
01 00:50 Vrbl 9 19.31 Overcast FEW016 BKN130 OVC300 28.3 26.4 89% 35 75.95 1012.5
31 23:57 Vrbl 7 19.31 Overcast FEW016 BKN130 OVC300 28.3 26.3 89% 35 75.97 1013.0
31 22:54 Vrbl 11 19.31 Overcast FEW016 SCT130 OVC300 28.5 26.4 88% 35 76 1013.4
31 21:55 Vrbl 9 19.31 Overcast FEW016 SCT130 OVC300 28.5 26.3 29.5 28.3 88% 35 75.97 1013.0
31 20:50 Vrbl 11 19.31 Overcast FEW016 SCT130 OVC300 28.5 26.4 88% 35 75.92 1012.2
31 19:53 W 13 19.31 Overcast FEW016 SCT130 OVC300 28.5 26.1 87% 35 75.87 1011.5
31 18:51 Vrbl 11 19.31 Overcast FEW016 SCT130 OVC300 28.3 26.1 88% 34 75.79 1010.7
31 17:54 W 13 19.31 Overcast FEW016 SCT130 OVC300 28.6 26.3 87% 35 75.74 1010.0
31 16:54 Vrbl 11 19.31 Overcast FEW016 SCT130 OVC300 28.7 26.3 87% 35 75.74 1010.0
31 15:57 Vrbl 11 19.31 Overcast FEW016 SCT130 OVC300 29.5 26.6 29.9 29.3 84% 37 75.74 1010.0
31 14:52 W 13 19.31 Overcast FEW016 SCT130 OVC300 29.8 26.6 83% 38 75.79 1010.7
31 13:50 W 13 19.31 Overcast FEW016 SCT130 OVC300 29.3 26.4 84% 37 75.82 1011.0
31 12:52 W 19 19.31 Overcast FEW016 SCT130 OVC300 29.4 26.2 83% 37 75.9 1011.8
31 11:51 W 22 19.31 Overcast FEW017 SCT130 OVC300 29.7 25.4 78% 36 75.9 1012.0
31 10:52 W 19 19.31 Mostly Cloudy FEW017 BKN300 29.9 26.6 83% 38 75.9 1012.0
31 09:57 W 13 19.31 Mostly Cloudy FEW017 BKN300 29.3 26.1 29.3 27.4 83% 36 75.92 1012.2
31 08:52 W 13 19.31 Overcast SCT016 SCT130 OVC300 29 26.1 84% 36 75.92 1012.2
31 06:55 W 19 19.31 Mostly Cloudy SCT016 SCT130 BKN300 28.1 25.7 87% 33 75.79 1010.7
31 05:55 W 19 19.31 Mostly Cloudy SCT016 SCT130 BKN300 27.9 25.7 88% 33 75.74 1010.0
31 04:55 Vrbl 7 19.31 Mostly Cloudy SCT016 SCT130 BKN300 27.4 25.4 89% 32 75.72 1009.5
31 03:55 Vrbl 7 19.31 Mostly Cloudy SCT016 SCT130 BKN300 27.5 25.4 27.9 27.5 88% 32 75.69 1009.3
31 02:55 Vrbl 9 19.31 Mostly Cloudy SCT016 SCT130 BKN300 27.7 25.6 88% 33 75.72 1009.5
31 01:50 Vrbl 11 19.31 Mostly Cloudy SCT016 SCT130 BKN300 27.9 25.9 89% 33 75.74 1009.8
31 00:53 W 13 19.31 Mostly Cloudy SCT016 SCT130 BKN300 27.6 25.6 89% 32 75.79 1010.5
30 23:54 Vrbl 9 19.31 Mostly Cloudy FEW016 SCT130 BKN300 27.5 25.2 87% 32 75.82 1011.0
30 22:53 Vrbl 11 19.31 Overcast FEW016CB SCT130 OVC300 27.7 25.4 87% 32 75.87 1011.5
30 20:50 Vrbl 11 19.31 Overcast FEW016 SCT130 OVC300 28 25.5 86% 33 75.82 1011.0
30 19:54 Vrbl 9 19.31 Overcast FEW016 SCT130 OVC300 28.1 25.4 85% 33 75.77 1010.1
30 18:53 Vrbl 11 19.31 Overcast FEW016 BKN130 OVC300 28.3 25.5 85% 34 75.74 1010.0
30 17:53 Vrbl 9 19.31 Overcast FEW016 BKN130 OVC300 29.2 25.9 82% 36 75.69 1009.3
30 16:50 W 13 19.31 Overcast FEW016 BKN130 OVC300 30 25.8 78% 37 75.72 1009.5
30 15:54 W 15 19.31 Overcast FEW016 BKN130 OVC300 29.9 25.7 31.2 29.6 78% 37 75.74 1009.8
30 14:50 W 13 G 22 19.31 Overcast FEW016 BKN130 OVC300 30.1 26.4 81% 38 75.74 1010.0
30 13:58 W 17 G 26 19.31 Mostly Cloudy FEW016 SCT130 BKN300 30.1 26.2 80% 38 75.79 1010.5
Date Time (+10) Wind (kph) Vis. (km) Weather Sky Cond. Air Dwpt Max. Min. Relative Humidity Wind Chill (°C) Heat Index (°C) altimeter (cm) sea level (mb) 1 hr 3 hr 6 hr
6 hour
Temperature (ºC) Pressure Precipitation (cm)